Main page
METAR-TAF:

METAR-TAF

Airports :

Istanbul Sabiha Gökçen, Turkey

Sabiha Gökçen International Airport

latitude: 40-53-55N, longitude: 029-18-33E, elevation: 95 m

Current weather observation

The report was made 54 minutes ago, at 08:20 UTC
Wind 1 kt from variable directions
Temperature 12°C
Humidity 62%
Pressure 1014 hPa
Visibility: 3500 m
haze

METAR: LTFJ 260820Z VRB01KT 3500 HZ NSC 12/05 Q1014 BECMG 6000

Time: 12:14 (09:14 UTC)

Forecast

The report was made 4 hours and 34 minutes ago, at 04:40 UTC
Forecast valid from 26 at 06 UTC to 27 at 06 UTC
Wind 2 kt from variable directions
Visibility: 4000 m
Broken clouds at a height of 500 ft
mist
Becoming
from 26 at 06 UTC to 26 at 09 UTC
Visibility 10 km or more
Scattered clouds at a height of 3500 ft
Becoming
from 26 at 13 UTC to 26 at 16 UTC
Broken clouds at a height of 2500 ft
Broken clouds at a height of 9000 ft
light rain showers

TAF: LTFJ 260440Z 2606/2706 VRB02KT 4000 BR BKN005 BECMG 2606/2609 9999 NSW SCT035 BECMG 2613/2616 -SHRA BKN025 BKN090

Weather observations and forecasts of more than 4000 airports (METAR and TAF reports).

The available stations are represented by yellow and red dots on the map.

Hover mouse over dot to see the name of the station.

Then click to see weather observations and forecasts.

To change the map : click on the green buttons with a black cross to zoom in, on the green button with a dash to zoom out, or on the green arrows for adjacent maps.


METAR-TAF: